createdAt,value
2023-05-04T00:02:12.432Z,4.50
2023-05-04T00:04:42.783Z,4.53
2023-05-04T00:07:10.820Z,4.13
2023-05-04T00:09:38.733Z,4.17
2023-05-04T00:12:07.964Z,4.20
2023-05-04T00:14:36.122Z,4.17
2023-05-04T00:17:06.393Z,4.60
2023-05-04T00:19:34.668Z,4.30
2023-05-04T00:22:04.066Z,4.57
2023-05-04T00:24:31.921Z,4.53
2023-05-04T00:27:00.156Z,4.60
2023-05-04T00:29:28.011Z,4.10
2023-05-04T00:31:56.157Z,4.20
2023-05-04T00:34:24.381Z,4.60
2023-05-04T00:36:52.249Z,4.73
2023-05-04T00:39:21.503Z,4.77
2023-05-04T00:41:49.359Z,4.73
2023-05-04T00:44:17.286Z,5.37
2023-05-04T00:46:45.588Z,4.30
2023-05-04T00:49:13.772Z,5.13
2023-05-04T00:51:41.973Z,4.67
2023-05-04T00:54:10.398Z,4.57
2023-05-04T00:56:42.280Z,5.73
2023-05-04T00:59:10.335Z,4.83
2023-05-04T01:01:38.298Z,5.00
2023-05-04T01:04:06.830Z,4.83
2023-05-04T01:06:44.727Z,5.27
2023-05-04T01:09:20.270Z,5.13
2023-05-04T01:11:55.980Z,4.80
2023-05-04T01:14:24.444Z,5.67
2023-05-04T01:17:01.890Z,5.30
2023-05-04T01:19:31.217Z,6.13
2023-05-04T01:22:01.545Z,5.60
2023-05-04T01:24:31.239Z,5.73
2023-05-04T01:27:05.794Z,5.73
2023-05-04T01:29:39.855Z,5.73
2023-05-04T01:32:09.412Z,6.53
2023-05-04T01:34:39.272Z,5.90
2023-05-04T01:37:08.666Z,6.73
2023-05-04T01:39:37.458Z,6.10
2023-05-04T01:42:07.602Z,6.00
2023-05-04T01:44:35.508Z,6.77
2023-05-04T01:47:03.513Z,6.47
2023-05-04T01:49:32.751Z,6.20
2023-05-04T01:52:00.688Z,6.40
2023-05-04T01:54:29.868Z,6.53
2023-05-04T01:56:58.649Z,6.30
2023-05-04T01:59:26.924Z,6.10
2023-05-04T02:01:55.842Z,6.60
2023-05-04T02:04:24.096Z,6.53
2023-05-04T02:06:51.964Z,6.90
2023-05-04T02:09:19.837Z,6.60
2023-05-04T02:11:49.092Z,6.87
2023-05-04T02:14:16.934Z,7.80
2023-05-04T02:16:44.786Z,5.77
2023-05-04T02:19:13.384Z,6.60
2023-05-04T02:21:43.840Z,6.27
2023-05-04T02:24:11.716Z,6.63
2023-05-04T02:26:39.920Z,6.50
2023-05-04T02:29:09.737Z,6.87
2023-05-04T02:31:38.109Z,6.87
2023-05-04T02:34:06.792Z,6.87
2023-05-04T02:36:34.643Z,6.60
2023-05-04T02:39:03.076Z,6.93
2023-05-04T02:41:30.915Z,6.83
2023-05-04T02:43:58.868Z,7.37
2023-05-04T02:46:28.132Z,7.70
2023-05-04T02:48:56.177Z,7.60
2023-05-04T02:51:24.375Z,7.43
2023-05-04T02:53:52.238Z,7.10
2023-05-04T02:56:20.118Z,7.77
2023-05-04T02:58:47.978Z,7.43
2023-05-04T03:01:15.965Z,7.50
2023-05-04T03:03:45.322Z,7.17
2023-05-04T03:06:13.169Z,6.93
2023-05-04T03:08:41.165Z,6.10
2023-05-04T03:11:09.028Z,6.37
2023-05-04T03:13:36.881Z,6.90
2023-05-04T03:16:05.527Z,6.70
2023-05-04T03:21:21.412Z,6.77
2023-05-04T03:23:49.597Z,6.40
2023-05-04T03:26:17.910Z,7.10
2023-05-04T03:28:46.732Z,6.40
2023-05-04T03:31:15.244Z,7.50
2023-05-04T03:33:43.574Z,7.10
2023-05-04T03:36:11.531Z,6.77
2023-05-04T03:38:43.099Z,7.60
2023-05-04T03:41:11.638Z,6.83
2023-05-04T03:43:40.372Z,7.17
2023-05-04T03:46:08.309Z,7.03
2023-05-04T03:48:36.329Z,6.93
2023-05-04T03:51:04.864Z,7.10
2023-05-04T03:53:34.377Z,6.80
2023-05-04T03:56:04.441Z,7.33
2023-05-04T03:58:32.729Z,7.43
2023-05-04T04:01:04.362Z,6.63
2023-05-04T04:03:33.084Z,8.40
2023-05-04T04:06:01.776Z,6.93
2023-05-04T04:08:29.619Z,7.30
2023-05-04T04:10:57.449Z,7.27
2023-05-04T04:13:27.878Z,7.03
2023-05-04T04:15:55.703Z,7.17
2023-05-04T04:18:24.556Z,8.27
2023-05-04T04:20:52.515Z,9.00
2023-05-04T04:23:21.821Z,8.60
2023-05-04T04:25:49.944Z,8.80
2023-05-04T04:28:18.035Z,8.20
2023-05-04T04:30:47.340Z,10.50
2023-05-04T04:33:15.174Z,7.97
2023-05-04T04:35:43.135Z,8.10
2023-05-04T04:38:10.986Z,7.60
2023-05-04T04:40:38.813Z,7.30
2023-05-04T04:43:06.664Z,8.90
2023-05-04T04:45:35.149Z,8.57
2023-05-04T04:48:04.586Z,7.93
2023-05-04T04:50:32.728Z,7.67
2023-05-04T04:53:00.876Z,8.50
2023-05-04T04:55:28.714Z,8.67
2023-05-04T04:57:56.569Z,8.63
2023-05-04T05:00:26.210Z,8.03
2023-05-04T05:02:54.225Z,9.20
2023-05-04T05:05:23.954Z,8.70
2023-05-04T05:07:51.933Z,8.60
2023-05-04T05:10:21.161Z,8.90
2023-05-04T05:12:49.843Z,8.10
2023-05-04T05:15:18.170Z,8.47
2023-05-04T05:17:46.144Z,7.30
2023-05-04T05:20:15.189Z,8.20
2023-05-04T05:22:44.458Z,7.50
2023-05-04T05:25:12.338Z,7.50
2023-05-04T05:27:40.137Z,7.50
2023-05-04T05:30:09.040Z,7.87
2023-05-04T05:32:37.422Z,9.80
2023-05-04T05:35:06.296Z,10.47
2023-05-04T05:37:34.283Z,10.87
2023-05-04T05:40:06.422Z,12.10
2023-05-04T05:42:34.487Z,12.37
2023-05-04T05:45:04.426Z,11.57
2023-05-04T05:47:32.279Z,12.77
2023-05-04T05:50:00.379Z,12.73
2023-05-04T05:52:28.230Z,13.07
2023-05-04T05:54:56.343Z,13.57
2023-05-04T05:57:25.527Z,12.57
2023-05-04T05:59:53.480Z,13.00
2023-05-04T06:02:21.441Z,13.03
2023-05-04T06:04:49.460Z,13.47
2023-05-04T06:07:18.399Z,12.77
2023-05-04T06:09:46.357Z,13.23
2023-05-04T06:12:15.167Z,13.57
2023-05-04T06:14:44.469Z,12.47
2023-05-04T06:17:12.330Z,13.33
2023-05-04T06:19:40.233Z,13.33
2023-05-04T06:22:08.254Z,12.67
2023-05-04T06:24:36.014Z,11.93
2023-05-04T06:27:04.293Z,12.87
2023-05-04T06:29:32.187Z,11.10
2023-05-04T06:32:02.279Z,11.67
2023-05-04T06:34:30.493Z,10.67
2023-05-04T06:36:58.313Z,11.20
2023-05-04T06:39:26.288Z,11.03
2023-05-04T06:41:54.973Z,10.00
2023-05-04T06:44:22.891Z,10.13
2023-05-04T06:46:51.265Z,10.37
2023-05-04T06:49:21.529Z,9.33
2023-05-04T06:51:49.622Z,9.13
2023-05-04T06:54:18.118Z,9.53
2023-05-04T06:56:46.240Z,10.03
2023-05-04T06:59:14.838Z,8.77
2023-05-04T07:01:45.410Z,8.23
2023-05-04T07:04:13.283Z,7.80
2023-05-04T07:06:43.864Z,8.57
2023-05-04T07:09:11.988Z,7.90
2023-05-04T07:11:40.800Z,7.40
2023-05-04T07:14:10.392Z,7.50
2023-05-04T07:16:39.302Z,7.43
2023-05-04T07:19:08.538Z,7.13
2023-05-04T07:21:36.417Z,6.90
2023-05-04T07:24:06.943Z,7.50
2023-05-04T07:26:34.884Z,6.77
2023-05-04T07:29:02.869Z,6.37
2023-05-04T07:31:30.976Z,6.20
2023-05-04T07:33:58.970Z,7.50
2023-05-04T07:36:27.925Z,5.97
2023-05-04T07:38:55.821Z,5.47
2023-05-04T07:41:24.983Z,6.00
2023-05-04T07:43:52.830Z,5.97
2023-05-04T07:46:20.709Z,5.83
2023-05-04T07:48:49.334Z,6.10
2023-05-04T07:51:17.292Z,5.00
2023-05-04T07:53:45.119Z,4.87
2023-05-04T07:56:14.220Z,5.20
2023-05-04T07:58:43.404Z,5.17
2023-05-04T08:01:11.344Z,4.90
2023-05-04T08:03:39.373Z,5.00
2023-05-04T08:06:09.200Z,5.20
2023-05-04T08:08:37.050Z,4.80
2023-05-04T08:11:18.752Z,4.40
2023-05-04T08:13:50.541Z,4.70
2023-05-04T08:16:18.875Z,4.83
2023-05-04T08:18:46.713Z,4.70
2023-05-04T08:21:14.549Z,5.03
2023-05-04T08:23:42.462Z,4.97
2023-05-04T08:26:10.835Z,4.63
2023-05-04T08:28:41.073Z,4.57
2023-05-04T08:31:10.911Z,4.23
2023-05-04T08:33:38.765Z,4.23
2023-05-04T08:36:08.724Z,4.87
2023-05-04T08:38:37.065Z,4.77
2023-05-04T08:41:05.232Z,4.90
2023-05-04T08:43:35.795Z,4.80
2023-05-04T08:46:04.930Z,4.87
2023-05-04T08:48:34.957Z,5.30
2023-05-04T08:51:04.468Z,4.67
2023-05-04T08:53:33.714Z,4.27
2023-05-04T08:56:04.577Z,4.63
2023-05-04T08:58:37.820Z,4.07
2023-05-04T09:01:08.431Z,3.87
2023-05-04T09:03:38.857Z,4.37
2023-05-04T09:06:08.211Z,4.57
2023-05-04T09:08:36.110Z,4.77
2023-05-04T09:11:04.130Z,4.30
2023-05-04T09:13:32.227Z,4.60
2023-05-04T09:16:00.354Z,4.83
2023-05-04T09:18:38.788Z,4.43
2023-05-04T09:21:07.458Z,4.63
2023-05-04T09:23:46.232Z,5.63
2023-05-04T09:26:14.182Z,4.80
2023-05-04T09:28:42.164Z,5.10
2023-05-04T09:31:11.755Z,5.30
2023-05-04T09:33:41.667Z,6.00
2023-05-04T09:36:17.027Z,4.90
2023-05-04T09:38:45.505Z,4.67
2023-05-04T09:41:13.423Z,4.53
2023-05-04T09:43:41.819Z,5.07
2023-05-04T09:46:17.112Z,4.57
2023-05-04T09:48:56.918Z,3.77
2023-05-04T09:51:26.520Z,3.87
2023-05-04T09:53:54.921Z,4.13
2023-05-04T09:56:33.680Z,4.57
2023-05-04T09:59:01.517Z,4.40
2023-05-04T10:01:30.600Z,3.80
2023-05-04T10:04:00.007Z,3.60
2023-05-04T10:06:30.197Z,3.83
2023-05-04T10:09:00.405Z,3.70
2023-05-04T10:11:29.989Z,3.87
2023-05-04T10:13:58.229Z,4.40
2023-05-04T10:16:34.661Z,3.80
2023-05-04T10:19:23.669Z,3.40
2023-05-04T10:22:04.026Z,3.30
2023-05-04T10:25:07.377Z,3.67
2023-05-04T10:27:46.665Z,4.27
2023-05-04T10:30:18.475Z,3.30
2023-05-04T10:32:46.573Z,3.90
2023-05-04T10:35:18.659Z,3.63
2023-05-04T10:37:54.365Z,3.73
2023-05-04T10:40:36.647Z,3.80
2023-05-04T10:43:05.416Z,3.50
2023-05-04T10:45:37.739Z,3.63
2023-05-04T10:48:07.927Z,3.33
2023-05-04T10:50:44.873Z,3.27
2023-05-04T10:53:13.765Z,3.17
2023-05-04T10:55:42.655Z,3.20
2023-05-04T10:58:14.780Z,2.90
2023-05-04T11:00:44.742Z,3.20
2023-05-04T11:03:14.052Z,2.63
2023-05-04T11:05:44.787Z,2.83
2023-05-04T11:08:16.964Z,3.37
2023-05-04T11:10:45.253Z,2.80
2023-05-04T11:13:13.235Z,3.10
2023-05-04T11:15:48.978Z,3.00
2023-05-04T11:18:27.259Z,3.00
2023-05-04T11:20:56.711Z,2.77
2023-05-04T11:23:24.631Z,3.80
2023-05-04T11:25:52.734Z,2.70
2023-05-04T11:28:20.551Z,2.30
2023-05-04T11:30:48.632Z,2.30
2023-05-04T11:33:17.233Z,2.70
2023-05-04T11:35:45.602Z,2.30
2023-05-04T11:38:20.106Z,2.40
2023-05-04T11:40:49.776Z,2.70
2023-05-04T11:43:18.537Z,2.40
2023-05-04T11:45:49.542Z,2.33
2023-05-04T11:48:18.703Z,2.33
2023-05-04T11:50:47.631Z,2.27
2023-05-04T11:53:21.497Z,2.27
2023-05-04T11:55:49.762Z,2.30
2023-05-04T11:58:25.299Z,2.33
2023-05-04T12:00:56.967Z,2.10
2023-05-04T12:03:32.680Z,2.40
2023-05-04T12:06:03.919Z,3.00
2023-05-04T12:08:35.141Z,2.47
2023-05-04T12:11:10.628Z,2.10
2023-05-04T12:13:38.571Z,2.47
2023-05-04T12:16:13.645Z,2.10
2023-05-04T12:18:42.180Z,2.27
2023-05-04T12:21:11.559Z,2.37
2023-05-04T12:23:42.570Z,2.13
2023-05-04T12:26:11.708Z,2.23
2023-05-04T12:28:41.122Z,2.20
2023-05-04T12:31:09.513Z,2.13
2023-05-04T12:33:37.428Z,2.20
2023-05-04T12:36:06.320Z,1.90
2023-05-04T12:38:34.334Z,2.20
2023-05-04T12:41:04.458Z,2.00
2023-05-04T12:43:33.130Z,2.00
2023-05-04T12:46:01.317Z,2.20
2023-05-04T12:48:31.909Z,2.07
2023-05-04T12:51:00.496Z,2.00
2023-05-04T12:53:30.081Z,1.80
2023-05-04T12:55:57.975Z,2.00
2023-05-04T12:58:27.542Z,1.73
2023-05-04T13:00:56.028Z,2.10
2023-05-04T13:03:23.936Z,1.97
2023-05-04T13:05:51.864Z,2.00
2023-05-04T13:08:19.992Z,2.20
2023-05-04T13:10:48.100Z,2.20
2023-05-04T13:13:17.857Z,1.80
2023-05-04T13:15:51.255Z,2.07
2023-05-04T13:18:19.357Z,1.80
2023-05-04T13:20:47.285Z,1.97
2023-05-04T13:23:15.299Z,1.97
2023-05-04T13:25:43.281Z,2.10
2023-05-04T13:28:11.118Z,1.97
2023-05-04T13:30:39.017Z,1.90
2023-05-04T13:33:20.875Z,2.10
2023-05-04T13:35:57.990Z,1.90
2023-05-04T13:38:26.987Z,1.97
2023-05-04T13:40:54.973Z,2.00
2023-05-04T13:43:23.497Z,1.90
2023-05-04T13:45:51.426Z,2.10
2023-05-04T13:48:20.621Z,2.13
2023-05-04T13:50:48.430Z,2.00
2023-05-04T13:53:16.342Z,2.13
2023-05-04T13:55:44.285Z,2.30
2023-05-04T13:58:12.086Z,2.03
2023-05-04T14:00:40.053Z,1.70
2023-05-04T14:03:08.013Z,2.00
2023-05-04T14:05:37.312Z,3.30
2023-05-04T14:08:05.287Z,2.60
2023-05-04T14:10:33.757Z,2.50
2023-05-04T14:13:02.780Z,2.37
2023-05-04T14:15:31.996Z,3.27
2023-05-04T14:17:59.942Z,2.13
2023-05-04T14:20:27.929Z,2.77
2023-05-04T14:22:57.133Z,2.47
2023-05-04T14:25:24.996Z,2.10
2023-05-04T14:27:52.849Z,2.10
2023-05-04T14:30:20.826Z,2.83
2023-05-04T14:32:48.685Z,2.03
2023-05-04T14:35:17.535Z,2.17
2023-05-04T14:37:49.266Z,2.10
2023-05-04T14:40:18.543Z,2.03
2023-05-04T14:42:47.091Z,2.17
2023-05-04T14:45:16.196Z,2.00
2023-05-04T14:47:44.053Z,1.90
2023-05-04T14:50:13.053Z,7.63
2023-05-04T14:52:40.918Z,2.50
2023-05-04T14:55:10.154Z,2.07
2023-05-04T14:57:39.357Z,9.63
2023-05-04T15:00:09.492Z,3.33
2023-05-04T15:02:38.505Z,8.50
2023-05-04T15:05:07.542Z,2.37
2023-05-04T15:07:35.492Z,2.67
2023-05-04T15:10:04.456Z,3.30
2023-05-04T15:12:32.435Z,2.60
2023-05-04T15:15:01.715Z,2.10
2023-05-04T15:17:30.708Z,2.90
2023-05-04T15:19:58.541Z,2.30
2023-05-04T15:22:26.500Z,2.70
2023-05-04T15:24:55.591Z,2.77
2023-05-04T15:27:23.966Z,2.20
2023-05-04T15:29:51.925Z,2.63
2023-05-04T15:32:21.502Z,2.57
2023-05-04T15:35:01.122Z,2.30
2023-05-04T15:37:32.494Z,2.50
2023-05-04T15:40:02.469Z,2.50
2023-05-04T15:42:31.191Z,2.83
2023-05-04T15:44:59.389Z,2.73
2023-05-04T15:47:28.949Z,2.60
2023-05-04T15:49:57.184Z,3.17
2023-05-04T15:52:25.437Z,3.40
2023-05-04T15:54:53.608Z,3.50
2023-05-04T15:57:21.830Z,3.50
2023-05-04T15:59:49.919Z,3.30
2023-05-04T16:02:18.725Z,3.20
2023-05-04T16:04:47.993Z,2.90
2023-05-04T16:07:16.001Z,3.10
2023-05-04T16:09:43.903Z,3.33
2023-05-04T16:12:11.796Z,3.30
2023-05-04T16:14:39.985Z,3.30
2023-05-04T16:17:08.235Z,3.53
2023-05-04T16:19:36.519Z,3.70
2023-05-04T16:22:05.750Z,3.30
2023-05-04T16:24:34.112Z,3.67
2023-05-04T16:27:01.936Z,3.30
2023-05-04T16:29:29.729Z,3.37
2023-05-04T16:31:57.657Z,3.70
2023-05-04T16:34:25.670Z,3.03
2023-05-04T16:36:53.641Z,3.23
2023-05-04T16:39:22.877Z,3.00
2023-05-04T16:41:50.669Z,3.30
2023-05-04T16:44:18.519Z,3.97
2023-05-04T16:46:46.598Z,3.70
2023-05-04T16:49:14.908Z,3.70
2023-05-04T16:51:43.379Z,6.27
2023-05-04T16:54:11.295Z,4.57
2023-05-04T16:56:40.696Z,3.90
2023-05-04T16:59:08.618Z,4.40
2023-05-04T17:01:36.560Z,3.93
2023-05-04T17:04:04.481Z,4.60
2023-05-04T17:06:32.484Z,4.43
2023-05-04T17:09:00.877Z,4.20
2023-05-04T17:11:28.799Z,4.10
2023-05-04T17:13:58.340Z,3.90
2023-05-04T17:16:26.261Z,4.37
2023-05-04T17:18:54.155Z,4.93
2023-05-04T17:21:22.136Z,4.37
2023-05-04T17:23:49.931Z,4.87
2023-05-04T17:26:17.812Z,4.40
2023-05-04T17:28:45.651Z,4.20
2023-05-04T17:31:15.733Z,4.37
2023-05-04T17:33:43.604Z,4.70
2023-05-04T17:36:12.380Z,4.20
2023-05-04T17:38:41.193Z,4.43
2023-05-04T17:41:09.813Z,4.47
2023-05-04T17:43:37.962Z,4.33
2023-05-04T17:46:05.992Z,4.23
2023-05-04T17:48:36.381Z,4.07
2023-05-04T17:51:08.270Z,4.60
2023-05-04T17:53:36.411Z,4.33
2023-05-04T17:56:04.540Z,4.70
2023-05-04T17:58:32.384Z,4.43
2023-05-04T18:01:00.182Z,4.50
2023-05-04T18:03:28.153Z,4.30
2023-05-04T18:05:57.550Z,4.30
2023-05-04T18:08:25.454Z,4.07
2023-05-04T18:10:53.336Z,3.77
2023-05-04T18:13:21.283Z,4.50
2023-05-04T18:15:49.235Z,4.33
2023-05-04T18:18:17.071Z,4.50
2023-05-04T18:20:44.949Z,4.30
2023-05-04T18:23:14.108Z,3.73
2023-05-04T18:25:41.938Z,3.63
2023-05-04T18:28:09.780Z,4.10
2023-05-04T18:30:37.564Z,3.87
2023-05-04T18:33:05.603Z,3.90
2023-05-04T18:35:33.556Z,3.40
2023-05-04T18:38:01.417Z,3.83
2023-05-04T18:40:31.668Z,3.90
2023-05-04T18:42:59.522Z,3.80
2023-05-04T18:45:27.858Z,4.33
2023-05-04T18:47:55.901Z,3.73
2023-05-04T18:50:24.303Z,4.00
2023-05-04T18:52:54.030Z,4.13
2023-05-04T18:55:22.234Z,4.13
2023-05-04T18:57:51.560Z,4.60
2023-05-04T19:00:19.932Z,4.20
2023-05-04T19:02:47.825Z,4.17
2023-05-04T19:05:16.026Z,4.07
2023-05-04T19:07:43.840Z,4.50
2023-05-04T19:10:12.117Z,4.37
2023-05-04T19:12:39.976Z,4.20
2023-05-04T19:15:10.522Z,3.93
2023-05-04T19:17:38.360Z,4.17
2023-05-04T19:20:08.239Z,4.13
2023-05-04T19:22:36.440Z,4.20
2023-05-04T19:25:06.459Z,4.33
2023-05-04T19:27:34.367Z,4.73
2023-05-04T19:30:02.229Z,4.17
2023-05-04T19:32:32.808Z,4.37
2023-05-04T19:35:00.773Z,4.40
2023-05-04T19:37:28.632Z,4.30
2023-05-04T19:39:57.744Z,4.30
2023-05-04T19:42:25.784Z,4.30
2023-05-04T19:44:53.612Z,4.37
2023-05-04T19:47:21.940Z,4.27
2023-05-04T19:49:51.224Z,4.13
2023-05-04T19:52:19.084Z,4.50
2023-05-04T19:54:48.563Z,4.43
2023-05-04T19:57:16.560Z,4.60
2023-05-04T19:59:46.710Z,4.70
2023-05-04T20:02:15.054Z,4.00
2023-05-04T20:04:42.873Z,3.73
2023-05-04T20:07:12.198Z,4.37
2023-05-04T20:09:40.229Z,4.13
2023-05-04T20:12:08.167Z,4.17
2023-05-04T20:14:36.140Z,4.27
2023-05-04T20:17:04.205Z,4.50
2023-05-04T20:19:32.047Z,4.87
2023-05-04T20:21:59.971Z,4.17
2023-05-04T20:24:29.151Z,4.13
2023-05-04T20:26:57.085Z,4.40
2023-05-04T20:29:24.928Z,4.40
2023-05-04T20:31:53.042Z,5.07
2023-05-04T20:34:20.943Z,4.30
2023-05-04T20:36:49.428Z,4.80
2023-05-04T20:39:17.254Z,4.07
2023-05-04T20:41:46.530Z,3.80
2023-05-04T20:44:14.618Z,4.37
2023-05-04T20:46:42.457Z,4.00
2023-05-04T20:49:10.897Z,4.00
2023-05-04T20:51:39.106Z,4.00
2023-05-04T20:54:07.004Z,4.40
2023-05-04T20:56:34.911Z,4.10
2023-05-04T20:59:04.225Z,4.57
2023-05-04T21:01:32.099Z,4.23
2023-05-04T21:04:00.132Z,4.10
2023-05-04T21:06:30.101Z,4.07
2023-05-04T21:08:58.279Z,3.87
2023-05-04T21:11:26.133Z,4.13
2023-05-04T21:13:54.547Z,4.30
2023-05-04T21:16:23.918Z,3.90
2023-05-04T21:18:51.985Z,4.10
2023-05-04T21:21:19.781Z,4.13
2023-05-04T21:23:47.589Z,4.10
2023-05-04T21:26:15.800Z,4.20
2023-05-04T21:28:43.910Z,4.10
2023-05-04T21:31:12.020Z,4.23
2023-05-04T21:33:41.281Z,4.30
2023-05-04T21:36:13.795Z,4.10
2023-05-04T21:38:42.088Z,4.50
2023-05-04T21:41:13.946Z,4.30
2023-05-04T21:43:42.142Z,4.27
2023-05-04T21:46:11.934Z,4.43
2023-05-04T21:48:41.569Z,4.50
2023-05-04T21:51:09.424Z,4.00
2023-05-04T21:53:37.348Z,4.87
2023-05-04T21:56:08.063Z,4.93
2023-05-04T21:58:37.127Z,4.33
2023-05-04T22:01:05.703Z,4.80
2023-05-04T22:03:33.792Z,4.60
2023-05-04T22:06:03.228Z,4.70
2023-05-04T22:08:31.273Z,4.67
2023-05-04T22:10:59.580Z,4.83
2023-05-04T22:13:27.851Z,4.53
2023-05-04T22:15:55.838Z,4.83
2023-05-04T22:18:23.788Z,4.97
2023-05-04T22:20:51.910Z,5.03
2023-05-04T22:23:21.058Z,4.63
2023-05-04T22:25:48.872Z,5.00
2023-05-04T22:28:16.753Z,5.00
2023-05-04T22:30:44.712Z,4.70
2023-05-04T22:33:12.602Z,4.57
2023-05-04T22:35:40.734Z,5.60
2023-05-04T22:38:08.656Z,5.17
2023-05-04T22:40:40.198Z,5.20
2023-05-04T22:43:08.473Z,6.17
2023-05-04T22:45:36.957Z,7.77
2023-05-04T22:48:05.154Z,7.40
2023-05-04T22:50:34.049Z,9.10
2023-05-04T22:53:01.958Z,7.37
2023-05-04T22:55:30.280Z,7.20
2023-05-04T22:57:59.560Z,7.23
2023-05-04T23:00:27.843Z,6.73
2023-05-04T23:02:56.770Z,7.33
2023-05-04T23:05:24.942Z,6.40
2023-05-04T23:07:53.089Z,6.17
2023-05-04T23:10:21.363Z,6.27
2023-05-04T23:12:49.233Z,6.10
2023-05-04T23:15:19.142Z,6.13
2023-05-04T23:17:46.982Z,6.47
2023-05-04T23:20:14.849Z,10.67
2023-05-04T23:22:42.739Z,8.63
2023-05-04T23:25:10.930Z,6.87
2023-05-04T23:27:39.566Z,5.90
2023-05-04T23:30:08.995Z,6.57
2023-05-04T23:32:38.977Z,7.57
2023-05-04T23:35:08.092Z,7.50
2023-05-04T23:37:35.986Z,7.30
2023-05-04T23:40:03.816Z,6.47
2023-05-04T23:42:31.710Z,7.20
2023-05-04T23:44:59.473Z,7.77
2023-05-04T23:47:27.298Z,8.37
2023-05-04T23:49:56.546Z,8.53
2023-05-04T23:52:24.329Z,7.23
2023-05-04T23:54:54.052Z,7.53
2023-05-04T23:57:21.915Z,7.50
2023-05-04T23:59:49.730Z,7.40
